sensor_id;sensor_type;location;lat;lon;timestamp;P1;durP1;ratioP1;P2;durP2;ratioP2
75025;SDS011;63591;50.080;8.286;2022-09-20T00:00:23;81.83;;;33.17;;
75025;SDS011;63591;50.080;8.286;2022-09-20T00:02:49;83.70;;;34.13;;
75025;SDS011;63591;50.080;8.286;2022-09-20T00:05:14;79.87;;;33.13;;
75025;SDS011;63591;50.080;8.286;2022-09-20T00:07:42;85.27;;;33.53;;
75025;SDS011;63591;50.080;8.286;2022-09-20T00:10:08;81.70;;;32.80;;
75025;SDS011;63591;50.080;8.286;2022-09-20T00:12:33;76.47;;;32.67;;
75025;SDS011;63591;50.080;8.286;2022-09-20T00:14:59;80.27;;;32.63;;
75025;SDS011;63591;50.080;8.286;2022-09-20T00:17:24;72.33;;;31.17;;
75025;SDS011;63591;50.080;8.286;2022-09-20T00:19:49;75.23;;;31.40;;
75025;SDS011;63591;50.080;8.286;2022-09-20T00:22:14;72.63;;;31.17;;
75025;SDS011;63591;50.080;8.286;2022-09-20T00:24:40;75.30;;;31.57;;
75025;SDS011;63591;50.080;8.286;2022-09-20T00:27:06;78.82;;;30.50;;
75025;SDS011;63591;50.080;8.286;2022-09-20T00:29:32;75.57;;;30.70;;
75025;SDS011;63591;50.080;8.286;2022-09-20T00:31:57;68.10;;;29.70;;
75025;SDS011;63591;50.080;8.286;2022-09-20T00:34:22;76.40;;;30.10;;
75025;SDS011;63591;50.080;8.286;2022-09-20T00:37:06;69.05;;;29.23;;
75025;SDS011;63591;50.080;8.286;2022-09-20T00:39:32;72.10;;;30.37;;
75025;SDS011;63591;50.080;8.286;2022-09-20T00:41:57;74.17;;;30.97;;
75025;SDS011;63591;50.080;8.286;2022-09-20T00:44:39;73.88;;;31.67;;
75025;SDS011;63591;50.080;8.286;2022-09-20T00:47:04;68.33;;;28.40;;
75025;SDS011;63591;50.080;8.286;2022-09-20T00:49:35;65.72;;;28.33;;
75025;SDS011;63591;50.080;8.286;2022-09-20T00:52:01;66.60;;;28.75;;
75025;SDS011;63591;50.080;8.286;2022-09-20T00:54:27;70.17;;;29.30;;
75025;SDS011;63591;50.080;8.286;2022-09-20T00:56:55;67.85;;;29.02;;
75025;SDS011;63591;50.080;8.286;2022-09-20T00:59:21;70.30;;;28.27;;
75025;SDS011;63591;50.080;8.286;2022-09-20T01:01:56;69.43;;;28.50;;
75025;SDS011;63591;50.080;8.286;2022-09-20T01:04:24;66.68;;;28.45;;
75025;SDS011;63591;50.080;8.286;2022-09-20T01:06:52;67.43;;;28.77;;
75025;SDS011;63591;50.080;8.286;2022-09-20T01:09:21;61.85;;;26.98;;
75025;SDS011;63591;50.080;8.286;2022-09-20T01:11:47;65.60;;;27.67;;
75025;SDS011;63591;50.080;8.286;2022-09-20T01:14:14;63.13;;;28.47;;
75025;SDS011;63591;50.080;8.286;2022-09-20T01:16:42;61.75;;;27.20;;
75025;SDS011;63591;50.080;8.286;2022-09-20T01:19:12;58.03;;;26.43;;
75025;SDS011;63591;50.080;8.286;2022-09-20T01:21:43;59.38;;;26.45;;
75025;SDS011;63591;50.080;8.286;2022-09-20T01:24:13;59.97;;;27.63;;
75025;SDS011;63591;50.080;8.286;2022-09-20T01:26:54;56.17;;;26.17;;
75025;SDS011;63591;50.080;8.286;2022-09-20T01:32:29;54.57;;;25.60;;
75025;SDS011;63591;50.080;8.286;2022-09-20T01:35:04;59.10;;;25.02;;
75025;SDS011;63591;50.080;8.286;2022-09-20T01:37:34;56.28;;;25.38;;
75025;SDS011;63591;50.080;8.286;2022-09-20T01:40:25;53.90;;;25.55;;
75025;SDS011;63591;50.080;8.286;2022-09-20T01:43:07;52.55;;;24.50;;
75025;SDS011;63591;50.080;8.286;2022-09-20T01:45:45;54.93;;;24.60;;
75025;SDS011;63591;50.080;8.286;2022-09-20T01:51:10;51.97;;;24.52;;
75025;SDS011;63591;50.080;8.286;2022-09-20T02:16:25;49.03;;;23.00;;
75025;SDS011;63591;50.080;8.286;2022-09-20T02:22:16;47.30;;;20.92;;
75025;SDS011;63591;50.080;8.286;2022-09-20T02:27:58;49.97;;;21.90;;
75025;SDS011;63591;50.080;8.286;2022-09-20T02:44:25;45.58;;;21.05;;
75025;SDS011;63591;50.080;8.286;2022-09-20T02:58:48;41.40;;;19.48;;
75025;SDS011;63591;50.080;8.286;2022-09-20T03:06:56;39.67;;;19.85;;
75025;SDS011;63591;50.080;8.286;2022-09-20T03:09:44;42.22;;;19.27;;
75025;SDS011;63591;50.080;8.286;2022-09-20T03:17:26;40.25;;;18.92;;
75025;SDS011;63591;50.080;8.286;2022-09-20T03:20:29;40.97;;;18.23;;
75025;SDS011;63591;50.080;8.286;2022-09-20T03:28:37;33.75;;;15.38;;
75025;SDS011;63591;50.080;8.286;2022-09-20T03:31:14;33.80;;;15.40;;
75025;SDS011;63591;50.080;8.286;2022-09-20T03:33:51;32.20;;;15.77;;
75025;SDS011;63591;50.080;8.286;2022-09-20T03:36:57;31.02;;;15.23;;
75025;SDS011;63591;50.080;8.286;2022-09-20T03:42:37;27.65;;;14.02;;
75025;SDS011;63591;50.080;8.286;2022-09-20T03:51:02;31.45;;;14.50;;
75025;SDS011;63591;50.080;8.286;2022-09-20T03:56:20;31.55;;;15.30;;
75025;SDS011;63591;50.080;8.286;2022-09-20T04:04:21;30.60;;;14.52;;
75025;SDS011;63591;50.080;8.286;2022-09-20T04:18:15;27.50;;;14.00;;
75025;SDS011;63591;50.080;8.286;2022-09-20T04:21:04;27.38;;;13.45;;
75025;SDS011;63591;50.080;8.286;2022-09-20T04:23:42;28.95;;;13.40;;
75025;SDS011;63591;50.080;8.286;2022-09-20T04:26:14;27.58;;;13.48;;
75025;SDS011;63591;50.080;8.286;2022-09-20T04:28:47;28.40;;;13.57;;
75025;SDS011;63591;50.080;8.286;2022-09-20T04:32:03;24.17;;;12.65;;
75025;SDS011;63591;50.080;8.286;2022-09-20T04:34:25;27.73;;;13.65;;
75025;SDS011;63591;50.080;8.286;2022-09-20T04:37:34;26.17;;;13.35;;
75025;SDS011;63591;50.080;8.286;2022-09-20T04:51:27;26.25;;;12.68;;
75025;SDS011;63591;50.080;8.286;2022-09-20T05:00:11;23.85;;;11.80;;
75025;SDS011;63591;50.080;8.286;2022-09-20T05:08:16;25.38;;;11.95;;
75025;SDS011;63591;50.080;8.286;2022-09-20T05:13:47;21.30;;;11.10;;
75025;SDS011;63591;50.080;8.286;2022-09-20T05:18:52;22.48;;;10.85;;
75025;SDS011;63591;50.080;8.286;2022-09-20T05:24:41;18.37;;;10.53;;
75025;SDS011;63591;50.080;8.286;2022-09-20T05:30:44;20.50;;;9.90;;
75025;SDS011;63591;50.080;8.286;2022-09-20T05:38:47;19.87;;;10.57;;
75025;SDS011;63591;50.080;8.286;2022-09-20T05:44:18;17.80;;;9.75;;
75025;SDS011;63591;50.080;8.286;2022-09-20T05:47:01;19.58;;;9.95;;
75025;SDS011;63591;50.080;8.286;2022-09-20T05:52:25;19.30;;;9.70;;
75025;SDS011;63591;50.080;8.286;2022-09-20T06:00:24;17.58;;;9.10;;
75025;SDS011;63591;50.080;8.286;2022-09-20T06:16:41;16.90;;;8.65;;
75025;SDS011;63591;50.080;8.286;2022-09-20T06:19:18;18.40;;;8.43;;
75025;SDS011;63591;50.080;8.286;2022-09-20T06:21:52;15.45;;;8.07;;
75025;SDS011;63591;50.080;8.286;2022-09-20T06:24:40;20.17;;;8.38;;
75025;SDS011;63591;50.080;8.286;2022-09-20T06:27:12;16.20;;;7.95;;
75025;SDS011;63591;50.080;8.286;2022-09-20T06:29:44;15.55;;;7.65;;
75025;SDS011;63591;50.080;8.286;2022-09-20T06:32:15;18.17;;;8.30;;
75025;SDS011;63591;50.080;8.286;2022-09-20T06:34:41;16.48;;;8.05;;
75025;SDS011;63591;50.080;8.286;2022-09-20T06:37:32;16.83;;;8.37;;
75025;SDS011;63591;50.080;8.286;2022-09-20T06:43:13;14.65;;;7.50;;
75025;SDS011;63591;50.080;8.286;2022-09-20T06:45:39;15.07;;;7.53;;
75025;SDS011;63591;50.080;8.286;2022-09-20T06:48:08;13.35;;;7.22;;
75025;SDS011;63591;50.080;8.286;2022-09-20T06:50:35;14.55;;;7.55;;
75025;SDS011;63591;50.080;8.286;2022-09-20T06:53:01;16.90;;;7.30;;
75025;SDS011;63591;50.080;8.286;2022-09-20T06:55:28;14.00;;;7.32;;
75025;SDS011;63591;50.080;8.286;2022-09-20T06:57:56;15.07;;;7.50;;
75025;SDS011;63591;50.080;8.286;2022-09-20T07:00:21;15.43;;;7.35;;
75025;SDS011;63591;50.080;8.286;2022-09-20T07:02:47;12.80;;;7.00;;
75025;SDS011;63591;50.080;8.286;2022-09-20T07:05:13;10.23;;;5.43;;
75025;SDS011;63591;50.080;8.286;2022-09-20T07:07:39;9.60;;;5.32;;
75025;SDS011;63591;50.080;8.286;2022-09-20T07:10:05;9.88;;;5.47;;
75025;SDS011;63591;50.080;8.286;2022-09-20T07:12:30;12.07;;;5.03;;
75025;SDS011;63591;50.080;8.286;2022-09-20T07:14:58;9.90;;;4.95;;
75025;SDS011;63591;50.080;8.286;2022-09-20T07:17:23;13.30;;;5.17;;
75025;SDS011;63591;50.080;8.286;2022-09-20T07:19:49;11.48;;;4.20;;
75025;SDS011;63591;50.080;8.286;2022-09-20T07:22:15;9.80;;;4.90;;
75025;SDS011;63591;50.080;8.286;2022-09-20T07:24:40;11.07;;;5.03;;
75025;SDS011;63591;50.080;8.286;2022-09-20T07:27:06;8.52;;;4.53;;
75025;SDS011;63591;50.080;8.286;2022-09-20T07:29:31;16.57;;;4.70;;
75025;SDS011;63591;50.080;8.286;2022-09-20T07:31:59;14.77;;;5.10;;
75025;SDS011;63591;50.080;8.286;2022-09-20T07:34:24;14.33;;;4.80;;
75025;SDS011;63591;50.080;8.286;2022-09-20T07:36:51;14.23;;;4.72;;
75025;SDS011;63591;50.080;8.286;2022-09-20T07:39:16;19.20;;;5.40;;
75025;SDS011;63591;50.080;8.286;2022-09-20T07:41:42;17.15;;;5.93;;
75025;SDS011;63591;50.080;8.286;2022-09-20T07:44:10;21.05;;;5.10;;
75025;SDS011;63591;50.080;8.286;2022-09-20T07:46:56;21.13;;;5.32;;
75025;SDS011;63591;50.080;8.286;2022-09-20T07:49:23;17.43;;;5.07;;
75025;SDS011;63591;50.080;8.286;2022-09-20T07:51:50;15.90;;;5.05;;
75025;SDS011;63591;50.080;8.286;2022-09-20T07:54:16;13.50;;;4.32;;
75025;SDS011;63591;50.080;8.286;2022-09-20T07:56:42;12.93;;;4.10;;
75025;SDS011;63591;50.080;8.286;2022-09-20T07:59:08;8.75;;;4.20;;
75025;SDS011;63591;50.080;8.286;2022-09-20T08:01:34;11.57;;;4.03;;
75025;SDS011;63591;50.080;8.286;2022-09-20T08:04:00;11.88;;;4.00;;
75025;SDS011;63591;50.080;8.286;2022-09-20T08:06:27;10.77;;;3.83;;
75025;SDS011;63591;50.080;8.286;2022-09-20T08:08:53;9.40;;;3.70;;
75025;SDS011;63591;50.080;8.286;2022-09-20T08:11:20;9.97;;;3.50;;
75025;SDS011;63591;50.080;8.286;2022-09-20T08:13:53;9.13;;;4.00;;
75025;SDS011;63591;50.080;8.286;2022-09-20T08:16:20;10.13;;;3.45;;
75025;SDS011;63591;50.080;8.286;2022-09-20T08:18:46;6.50;;;3.10;;
75025;SDS011;63591;50.080;8.286;2022-09-20T08:21:17;7.10;;;3.20;;
75025;SDS011;63591;50.080;8.286;2022-09-20T08:23:43;9.30;;;3.53;;
75025;SDS011;63591;50.080;8.286;2022-09-20T08:26:11;6.40;;;3.35;;
75025;SDS011;63591;50.080;8.286;2022-09-20T08:28:38;7.40;;;3.30;;
75025;SDS011;63591;50.080;8.286;2022-09-20T08:31:09;10.60;;;3.40;;
75025;SDS011;63591;50.080;8.286;2022-09-20T08:33:37;8.70;;;3.20;;
75025;SDS011;63591;50.080;8.286;2022-09-20T08:36:06;7.05;;;3.25;;
75025;SDS011;63591;50.080;8.286;2022-09-20T08:38:35;8.43;;;3.30;;
75025;SDS011;63591;50.080;8.286;2022-09-20T08:41:02;7.33;;;3.43;;
75025;SDS011;63591;50.080;8.286;2022-09-20T08:43:35;8.60;;;3.30;;
75025;SDS011;63591;50.080;8.286;2022-09-20T08:46:03;8.20;;;3.30;;
75025;SDS011;63591;50.080;8.286;2022-09-20T08:48:33;8.35;;;3.15;;
75025;SDS011;63591;50.080;8.286;2022-09-20T08:50:59;7.80;;;3.10;;
75025;SDS011;63591;50.080;8.286;2022-09-20T08:53:26;7.20;;;3.20;;
75025;SDS011;63591;50.080;8.286;2022-09-20T08:55:54;6.13;;;2.90;;
75025;SDS011;63591;50.080;8.286;2022-09-20T08:58:23;6.38;;;2.90;;
75025;SDS011;63591;50.080;8.286;2022-09-20T09:00:52;6.67;;;3.00;;
75025;SDS011;63591;50.080;8.286;2022-09-20T09:03:23;5.97;;;2.90;;
75025;SDS011;63591;50.080;8.286;2022-09-20T09:05:51;7.75;;;3.10;;
75025;SDS011;63591;50.080;8.286;2022-09-20T09:08:20;5.68;;;2.70;;
75025;SDS011;63591;50.080;8.286;2022-09-20T09:10:51;8.60;;;3.28;;
75025;SDS011;63591;50.080;8.286;2022-09-20T09:13:23;6.10;;;2.90;;
75025;SDS011;63591;50.080;8.286;2022-09-20T09:15:56;6.07;;;2.72;;
75025;SDS011;63591;50.080;8.286;2022-09-20T09:18:32;6.80;;;3.00;;
75025;SDS011;63591;50.080;8.286;2022-09-20T09:21:00;6.57;;;3.10;;
75025;SDS011;63591;50.080;8.286;2022-09-20T09:23:29;7.47;;;3.00;;
75025;SDS011;63591;50.080;8.286;2022-09-20T09:26:02;5.97;;;2.73;;
75025;SDS011;63591;50.080;8.286;2022-09-20T09:28:29;6.18;;;2.60;;
75025;SDS011;63591;50.080;8.286;2022-09-20T09:33:52;6.00;;;2.83;;
75025;SDS011;63591;50.080;8.286;2022-09-20T09:36:23;5.93;;;2.60;;
75025;SDS011;63591;50.080;8.286;2022-09-20T09:38:50;5.55;;;2.75;;
75025;SDS011;63591;50.080;8.286;2022-09-20T09:41:35;5.63;;;2.72;;
75025;SDS011;63591;50.080;8.286;2022-09-20T09:44:02;5.60;;;2.80;;
75025;SDS011;63591;50.080;8.286;2022-09-20T09:46:32;6.03;;;2.83;;
75025;SDS011;63591;50.080;8.286;2022-09-20T09:49:18;5.80;;;3.00;;
75025;SDS011;63591;50.080;8.286;2022-09-20T09:54:47;6.50;;;3.20;;
75025;SDS011;63591;50.080;8.286;2022-09-20T10:00:16;5.28;;;2.40;;
75025;SDS011;63591;50.080;8.286;2022-09-20T10:13:43;6.45;;;2.65;;
75025;SDS011;63591;50.080;8.286;2022-09-20T10:19:22;5.67;;;2.50;;
75025;SDS011;63591;50.080;8.286;2022-09-20T10:28:11;4.97;;;2.80;;
75025;SDS011;63591;50.080;8.286;2022-09-20T10:31:04;6.20;;;2.80;;
75025;SDS011;63591;50.080;8.286;2022-09-20T10:33:34;5.37;;;2.40;;
75025;SDS011;63591;50.080;8.286;2022-09-20T10:36:11;6.63;;;2.72;;
75025;SDS011;63591;50.080;8.286;2022-09-20T10:38:44;5.82;;;2.70;;
75025;SDS011;63591;50.080;8.286;2022-09-20T10:41:40;5.68;;;2.60;;
75025;SDS011;63591;50.080;8.286;2022-09-20T10:44:33;6.07;;;2.67;;
75025;SDS011;63591;50.080;8.286;2022-09-20T10:47:16;5.67;;;2.60;;
75025;SDS011;63591;50.080;8.286;2022-09-20T10:55:25;5.40;;;2.70;;
75025;SDS011;63591;50.080;8.286;2022-09-20T11:03:59;5.43;;;2.45;;
75025;SDS011;63591;50.080;8.286;2022-09-20T11:09:34;5.85;;;2.33;;
75025;SDS011;63591;50.080;8.286;2022-09-20T11:12:15;5.38;;;2.60;;
75025;SDS011;63591;50.080;8.286;2022-09-20T11:15:14;5.57;;;2.57;;
75025;SDS011;63591;50.080;8.286;2022-09-20T11:17:52;5.50;;;2.50;;
75025;SDS011;63591;50.080;8.286;2022-09-20T11:20:49;5.93;;;2.65;;
75025;SDS011;63591;50.080;8.286;2022-09-20T11:24:26;4.43;;;2.20;;
75025;SDS011;63591;50.080;8.286;2022-09-20T11:26:25;4.53;;;2.30;;
75025;SDS011;63591;50.080;8.286;2022-09-20T11:29:02;5.67;;;2.30;;
75025;SDS011;63591;50.080;8.286;2022-09-20T11:31:38;4.75;;;2.10;;
75025;SDS011;63591;50.080;8.286;2022-09-20T11:34:14;4.82;;;2.10;;
75025;SDS011;63591;50.080;8.286;2022-09-20T11:37:01;5.13;;;2.40;;
75025;SDS011;63591;50.080;8.286;2022-09-20T11:39:29;4.80;;;2.40;;
75025;SDS011;63591;50.080;8.286;2022-09-20T11:42:18;4.15;;;2.38;;
75025;SDS011;63591;50.080;8.286;2022-09-20T11:44:47;5.43;;;2.22;;
75025;SDS011;63591;50.080;8.286;2022-09-20T11:47:22;4.35;;;2.10;;
75025;SDS011;63591;50.080;8.286;2022-09-20T11:53:19;4.25;;;1.90;;
75025;SDS011;63591;50.080;8.286;2022-09-20T11:58:45;5.07;;;2.17;;
75025;SDS011;63591;50.080;8.286;2022-09-20T12:01:12;4.95;;;2.42;;
75025;SDS011;63591;50.080;8.286;2022-09-20T12:03:41;5.10;;;2.20;;
75025;SDS011;63591;50.080;8.286;2022-09-20T12:06:57;4.80;;;2.40;;
75025;SDS011;63591;50.080;8.286;2022-09-20T12:09:06;4.38;;;2.20;;
75025;SDS011;63591;50.080;8.286;2022-09-20T12:14:55;5.18;;;2.28;;
75025;SDS011;63591;50.080;8.286;2022-09-20T12:26:07;4.10;;;2.10;;
75025;SDS011;63591;50.080;8.286;2022-09-20T12:28:44;4.32;;;2.15;;
75025;SDS011;63591;50.080;8.286;2022-09-20T12:36:35;4.28;;;2.10;;
75025;SDS011;63591;50.080;8.286;2022-09-20T12:39:03;3.97;;;2.05;;
75025;SDS011;63591;50.080;8.286;2022-09-20T12:47:05;4.85;;;2.10;;
75025;SDS011;63591;50.080;8.286;2022-09-20T12:53:03;3.92;;;1.73;;
75025;SDS011;63591;50.080;8.286;2022-09-20T13:05:48;4.18;;;2.15;;
75025;SDS011;63591;50.080;8.286;2022-09-20T13:11:37;4.88;;;2.15;;
75025;SDS011;63591;50.080;8.286;2022-09-20T13:19:23;3.80;;;1.90;;
75025;SDS011;63591;50.080;8.286;2022-09-20T13:22:01;4.70;;;1.90;;
75025;SDS011;63591;50.080;8.286;2022-09-20T13:24:36;5.55;;;2.08;;
75025;SDS011;63591;50.080;8.286;2022-09-20T13:27:04;8.27;;;2.30;;
75025;SDS011;63591;50.080;8.286;2022-09-20T13:29:42;7.05;;;2.10;;
75025;SDS011;63591;50.080;8.286;2022-09-20T13:32:28;4.82;;;1.92;;
75025;SDS011;63591;50.080;8.286;2022-09-20T13:35:04;7.15;;;2.22;;
75025;SDS011;63591;50.080;8.286;2022-09-20T13:38:18;8.30;;;2.20;;
75025;SDS011;63591;50.080;8.286;2022-09-20T13:40:35;10.37;;;2.23;;
75025;SDS011;63591;50.080;8.286;2022-09-20T13:43:49;5.80;;;2.28;;
75025;SDS011;63591;50.080;8.286;2022-09-20T13:45:59;6.30;;;2.20;;
75025;SDS011;63591;50.080;8.286;2022-09-20T13:48:32;7.78;;;2.08;;
75025;SDS011;63591;50.080;8.286;2022-09-20T13:50:58;8.63;;;2.20;;
75025;SDS011;63591;50.080;8.286;2022-09-20T13:53:23;8.03;;;2.30;;
75025;SDS011;63591;50.080;8.286;2022-09-20T13:55:50;5.57;;;2.20;;
75025;SDS011;63591;50.080;8.286;2022-09-20T14:00:49;5.60;;;1.80;;
75025;SDS011;63591;50.080;8.286;2022-09-20T14:03:18;5.15;;;2.10;;
75025;SDS011;63591;50.080;8.286;2022-09-20T14:05:46;5.20;;;2.17;;
75025;SDS011;63591;50.080;8.286;2022-09-20T14:08:19;7.53;;;2.20;;
75025;SDS011;63591;50.080;8.286;2022-09-20T14:10:48;6.95;;;2.10;;
75025;SDS011;63591;50.080;8.286;2022-09-20T14:13:26;5.07;;;1.70;;
75025;SDS011;63591;50.080;8.286;2022-09-20T14:15:57;4.72;;;1.70;;
75025;SDS011;63591;50.080;8.286;2022-09-20T14:18:22;5.23;;;1.87;;
75025;SDS011;63591;50.080;8.286;2022-09-20T14:20:48;6.50;;;1.88;;
75025;SDS011;63591;50.080;8.286;2022-09-20T14:23:21;9.40;;;2.00;;
75025;SDS011;63591;50.080;8.286;2022-09-20T14:28:40;8.05;;;2.08;;
75025;SDS011;63591;50.080;8.286;2022-09-20T14:33:56;5.03;;;2.00;;
75025;SDS011;63591;50.080;8.286;2022-09-20T14:36:24;11.27;;;2.10;;
75025;SDS011;63591;50.080;8.286;2022-09-20T14:38:52;4.85;;;1.90;;
75025;SDS011;63591;50.080;8.286;2022-09-20T14:43:57;8.27;;;2.15;;
75025;SDS011;63591;50.080;8.286;2022-09-20T14:46:36;6.32;;;1.70;;
75025;SDS011;63591;50.080;8.286;2022-09-20T14:51:49;4.93;;;1.90;;
75025;SDS011;63591;50.080;8.286;2022-09-20T14:54:21;5.20;;;1.80;;
75025;SDS011;63591;50.080;8.286;2022-09-20T14:56:47;9.13;;;1.92;;
75025;SDS011;63591;50.080;8.286;2022-09-20T15:01:43;6.83;;;2.07;;
75025;SDS011;63591;50.080;8.286;2022-09-20T15:04:18;4.63;;;1.60;;
75025;SDS011;63591;50.080;8.286;2022-09-20T15:06:46;4.70;;;1.90;;
75025;SDS011;63591;50.080;8.286;2022-09-20T15:09:12;5.13;;;1.70;;
75025;SDS011;63591;50.080;8.286;2022-09-20T15:11:38;6.47;;;2.00;;
75025;SDS011;63591;50.080;8.286;2022-09-20T15:14:04;5.47;;;2.00;;
75025;SDS011;63591;50.080;8.286;2022-09-20T15:16:30;5.72;;;1.80;;
75025;SDS011;63591;50.080;8.286;2022-09-20T15:18:57;5.10;;;1.80;;
75025;SDS011;63591;50.080;8.286;2022-09-20T15:21:23;5.77;;;1.70;;
75025;SDS011;63591;50.080;8.286;2022-09-20T15:23:49;6.20;;;1.60;;
75025;SDS011;63591;50.080;8.286;2022-09-20T15:26:14;5.90;;;1.70;;
75025;SDS011;63591;50.080;8.286;2022-09-20T15:28:40;6.63;;;1.65;;
75025;SDS011;63591;50.080;8.286;2022-09-20T15:31:06;5.00;;;1.60;;
75025;SDS011;63591;50.080;8.286;2022-09-20T15:33:32;4.77;;;1.40;;
75025;SDS011;63591;50.080;8.286;2022-09-20T15:35:57;4.40;;;1.70;;
75025;SDS011;63591;50.080;8.286;2022-09-20T15:38:24;5.28;;;1.67;;
75025;SDS011;63591;50.080;8.286;2022-09-20T15:40:51;5.05;;;1.67;;
75025;SDS011;63591;50.080;8.286;2022-09-20T15:43:20;4.28;;;1.50;;
75025;SDS011;63591;50.080;8.286;2022-09-20T15:48:15;6.10;;;1.55;;
75025;SDS011;63591;50.080;8.286;2022-09-20T15:53:29;5.47;;;1.55;;
75025;SDS011;63591;50.080;8.286;2022-09-20T15:56:03;6.80;;;1.52;;
75025;SDS011;63591;50.080;8.286;2022-09-20T15:58:30;5.40;;;1.50;;
75025;SDS011;63591;50.080;8.286;2022-09-20T16:01:04;7.35;;;1.50;;
75025;SDS011;63591;50.080;8.286;2022-09-20T16:03:31;4.85;;;1.50;;
75025;SDS011;63591;50.080;8.286;2022-09-20T16:05:58;6.00;;;1.42;;
75025;SDS011;63591;50.080;8.286;2022-09-20T16:08:25;5.80;;;1.67;;
75025;SDS011;63591;50.080;8.286;2022-09-20T16:10:55;4.03;;;1.40;;
75025;SDS011;63591;50.080;8.286;2022-09-20T16:13:22;4.85;;;1.50;;
75025;SDS011;63591;50.080;8.286;2022-09-20T16:15:52;5.13;;;1.33;;
75025;SDS011;63591;50.080;8.286;2022-09-20T16:18:21;5.18;;;1.60;;
75025;SDS011;63591;50.080;8.286;2022-09-20T16:21:09;4.20;;;1.50;;
75025;SDS011;63591;50.080;8.286;2022-09-20T16:23:39;14.95;;;1.40;;
75025;SDS011;63591;50.080;8.286;2022-09-20T16:26:05;4.40;;;1.40;;
75025;SDS011;63591;50.080;8.286;2022-09-20T16:28:37;5.63;;;1.50;;
75025;SDS011;63591;50.080;8.286;2022-09-20T16:31:05;4.97;;;1.33;;
75025;SDS011;63591;50.080;8.286;2022-09-20T16:33:31;4.93;;;1.20;;
75025;SDS011;63591;50.080;8.286;2022-09-20T16:35:57;7.03;;;1.47;;
75025;SDS011;63591;50.080;8.286;2022-09-20T16:38:22;4.72;;;1.52;;
75025;SDS011;63591;50.080;8.286;2022-09-20T16:40:48;4.93;;;1.20;;
75025;SDS011;63591;50.080;8.286;2022-09-20T16:43:18;4.45;;;1.30;;
75025;SDS011;63591;50.080;8.286;2022-09-20T16:45:59;5.13;;;1.40;;
75025;SDS011;63591;50.080;8.286;2022-09-20T16:48:25;3.78;;;1.45;;
75025;SDS011;63591;50.080;8.286;2022-09-20T16:50:56;3.70;;;1.50;;
75025;SDS011;63591;50.080;8.286;2022-09-20T16:53:24;3.72;;;1.30;;
75025;SDS011;63591;50.080;8.286;2022-09-20T16:55:50;4.40;;;1.42;;
75025;SDS011;63591;50.080;8.286;2022-09-20T16:58:15;4.97;;;1.43;;
75025;SDS011;63591;50.080;8.286;2022-09-20T17:00:41;11.53;;;1.30;;
75025;SDS011;63591;50.080;8.286;2022-09-20T17:03:06;9.53;;;1.50;;
75025;SDS011;63591;50.080;8.286;2022-09-20T17:05:32;6.27;;;1.70;;
75025;SDS011;63591;50.080;8.286;2022-09-20T17:07:57;10.87;;;1.50;;
75025;SDS011;63591;50.080;8.286;2022-09-20T17:10:24;9.67;;;1.70;;
75025;SDS011;63591;50.080;8.286;2022-09-20T17:12:52;5.05;;;1.30;;
75025;SDS011;63591;50.080;8.286;2022-09-20T17:15:21;5.78;;;1.50;;
75025;SDS011;63591;50.080;8.286;2022-09-20T17:17:47;14.27;;;2.10;;
75025;SDS011;63591;50.080;8.286;2022-09-20T17:20:12;12.27;;;1.87;;
75025;SDS011;63591;50.080;8.286;2022-09-20T17:22:37;7.30;;;1.80;;
75025;SDS011;63591;50.080;8.286;2022-09-20T17:25:03;11.53;;;2.03;;
75025;SDS011;63591;50.080;8.286;2022-09-20T17:27:28;10.20;;;2.40;;
75025;SDS011;63591;50.080;8.286;2022-09-20T17:29:54;9.70;;;2.50;;
75025;SDS011;63591;50.080;8.286;2022-09-20T17:32:19;12.60;;;2.87;;
75025;SDS011;63591;50.080;8.286;2022-09-20T17:34:44;8.93;;;2.70;;
75025;SDS011;63591;50.080;8.286;2022-09-20T17:37:10;11.20;;;2.90;;
75025;SDS011;63591;50.080;8.286;2022-09-20T17:39:35;13.67;;;3.57;;
75025;SDS011;63591;50.080;8.286;2022-09-20T17:42:01;12.03;;;3.67;;
75025;SDS011;63591;50.080;8.286;2022-09-20T17:44:26;12.67;;;3.53;;
75025;SDS011;63591;50.080;8.286;2022-09-20T17:46:51;12.13;;;3.20;;
75025;SDS011;63591;50.080;8.286;2022-09-20T17:49:18;12.83;;;3.60;;
75025;SDS011;63591;50.080;8.286;2022-09-20T17:51:50;9.40;;;3.20;;
75025;SDS011;63591;50.080;8.286;2022-09-20T17:54:17;9.80;;;3.15;;
75025;SDS011;63591;50.080;8.286;2022-09-20T17:56:44;10.57;;;2.90;;
75025;SDS011;63591;50.080;8.286;2022-09-20T17:59:11;9.55;;;2.60;;
75025;SDS011;63591;50.080;8.286;2022-09-20T18:01:40;8.47;;;2.70;;
75025;SDS011;63591;50.080;8.286;2022-09-20T18:04:06;12.68;;;3.00;;
75025;SDS011;63591;50.080;8.286;2022-09-20T18:06:40;18.60;;;5.05;;
75025;SDS011;63591;50.080;8.286;2022-09-20T18:09:09;23.00;;;6.22;;
75025;SDS011;63591;50.080;8.286;2022-09-20T18:14:05;28.40;;;5.87;;
75025;SDS011;63591;50.080;8.286;2022-09-20T18:16:31;22.30;;;5.38;;
75025;SDS011;63591;50.080;8.286;2022-09-20T18:18:58;19.50;;;5.28;;
75025;SDS011;63591;50.080;8.286;2022-09-20T18:21:25;36.43;;;4.80;;
75025;SDS011;63591;50.080;8.286;2022-09-20T18:23:50;17.65;;;4.22;;
75025;SDS011;63591;50.080;8.286;2022-09-20T18:26:17;23.08;;;4.85;;
75025;SDS011;63591;50.080;8.286;2022-09-20T18:33:59;20.08;;;4.22;;
75025;SDS011;63591;50.080;8.286;2022-09-20T18:36:27;13.00;;;3.35;;
75025;SDS011;63591;50.080;8.286;2022-09-20T18:38:55;12.25;;;3.13;;
75025;SDS011;63591;50.080;8.286;2022-09-20T18:41:22;9.85;;;3.05;;
75025;SDS011;63591;50.080;8.286;2022-09-20T18:43:53;7.67;;;2.73;;
75025;SDS011;63591;50.080;8.286;2022-09-20T18:46:20;7.53;;;2.60;;
75025;SDS011;63591;50.080;8.286;2022-09-20T18:48:52;7.68;;;2.67;;
75025;SDS011;63591;50.080;8.286;2022-09-20T18:51:19;6.40;;;2.30;;
75025;SDS011;63591;50.080;8.286;2022-09-20T18:53:46;7.18;;;2.53;;
75025;SDS011;63591;50.080;8.286;2022-09-20T18:56:28;7.43;;;2.60;;
75025;SDS011;63591;50.080;8.286;2022-09-20T18:58:54;9.32;;;2.60;;
75025;SDS011;63591;50.080;8.286;2022-09-20T19:06:52;6.70;;;2.40;;
75025;SDS011;63591;50.080;8.286;2022-09-20T19:12:36;5.60;;;2.13;;
75025;SDS011;63591;50.080;8.286;2022-09-20T19:25:41;7.85;;;2.00;;
75025;SDS011;63591;50.080;8.286;2022-09-20T19:28:11;5.20;;;2.00;;
75025;SDS011;63591;50.080;8.286;2022-09-20T19:30:39;8.18;;;1.90;;
75025;SDS011;63591;50.080;8.286;2022-09-20T19:33:13;7.85;;;1.90;;
75025;SDS011;63591;50.080;8.286;2022-09-20T19:35:41;5.97;;;1.83;;
75025;SDS011;63591;50.080;8.286;2022-09-20T19:38:25;5.95;;;1.88;;
75025;SDS011;63591;50.080;8.286;2022-09-20T19:41:35;6.73;;;2.10;;
75025;SDS011;63591;50.080;8.286;2022-09-20T19:47:16;4.47;;;1.70;;
75025;SDS011;63591;50.080;8.286;2022-09-20T19:49:52;4.75;;;1.70;;
75025;SDS011;63591;50.080;8.286;2022-09-20T19:52:19;4.63;;;1.60;;
75025;SDS011;63591;50.080;8.286;2022-09-20T19:54:46;5.73;;;1.80;;
75025;SDS011;63591;50.080;8.286;2022-09-20T19:57:15;5.65;;;1.88;;
75025;SDS011;63591;50.080;8.286;2022-09-20T19:59:44;4.85;;;1.60;;
75025;SDS011;63591;50.080;8.286;2022-09-20T20:02:10;4.40;;;1.90;;
75025;SDS011;63591;50.080;8.286;2022-09-20T20:04:36;5.07;;;1.87;;
75025;SDS011;63591;50.080;8.286;2022-09-20T20:09:53;5.40;;;1.88;;
75025;SDS011;63591;50.080;8.286;2022-09-20T20:12:29;4.60;;;1.60;;
75025;SDS011;63591;50.080;8.286;2022-09-20T20:17:55;4.00;;;1.50;;
75025;SDS011;63591;50.080;8.286;2022-09-20T20:25:59;4.27;;;1.60;;
75025;SDS011;63591;50.080;8.286;2022-09-20T20:28:29;4.82;;;1.73;;
75025;SDS011;63591;50.080;8.286;2022-09-20T20:30:55;3.97;;;1.52;;
75025;SDS011;63591;50.080;8.286;2022-09-20T20:33:23;3.85;;;1.55;;